sensor_id;sensor_type;location;lat;lon;timestamp;pressure;altitude;pressure_sealevel;temperature;humidity
14689;BME280;7432;48.728;9.154;2023-03-29T00:01:04;96926.16;;;5.85;89.06
14689;BME280;7432;48.728;9.154;2023-03-29T00:03:31;96921.97;;;5.84;88.88
14689;BME280;7432;48.728;9.154;2023-03-29T00:05:59;96914.19;;;5.75;89.92
14689;BME280;7432;48.728;9.154;2023-03-29T00:08:28;96916.50;;;5.78;89.50
14689;BME280;7432;48.728;9.154;2023-03-29T00:10:55;96901.19;;;5.67;89.57
14689;BME280;7432;48.728;9.154;2023-03-29T00:13:23;96918.59;;;5.84;89.19
14689;BME280;7432;48.728;9.154;2023-03-29T00:15:49;96918.00;;;5.80;88.70
14689;BME280;7432;48.728;9.154;2023-03-29T00:18:16;96915.34;;;5.82;90.15
14689;BME280;7432;48.728;9.154;2023-03-29T00:20:42;96916.28;;;5.81;89.33
14689;BME280;7432;48.728;9.154;2023-03-29T00:23:09;96909.31;;;5.72;89.02
14689;BME280;7432;48.728;9.154;2023-03-29T00:25:36;96912.81;;;5.71;87.70
14689;BME280;7432;48.728;9.154;2023-03-29T00:28:03;96906.91;;;5.59;87.99
14689;BME280;7432;48.728;9.154;2023-03-29T00:30:30;96897.63;;;5.47;87.55
14689;BME280;7432;48.728;9.154;2023-03-29T00:32:56;96892.44;;;5.49;87.83
14689;BME280;7432;48.728;9.154;2023-03-29T00:35:22;96889.88;;;5.49;87.85
14689;BME280;7432;48.728;9.154;2023-03-29T00:37:49;96882.09;;;5.50;87.78
14689;BME280;7432;48.728;9.154;2023-03-29T00:40:17;96883.06;;;5.38;87.66
14689;BME280;7432;48.728;9.154;2023-03-29T00:42:45;96874.31;;;5.52;87.64
14689;BME280;7432;48.728;9.154;2023-03-29T00:45:16;96875.25;;;5.51;86.82
14689;BME280;7432;48.728;9.154;2023-03-29T00:47:45;96874.19;;;5.42;87.20
14689;BME280;7432;48.728;9.154;2023-03-29T00:50:16;96869.00;;;5.44;87.20
14689;BME280;7432;48.728;9.154;2023-03-29T00:52:50;96865.50;;;5.45;87.91
14689;BME280;7432;48.728;9.154;2023-03-29T00:55:20;96871.88;;;5.50;87.65
14689;BME280;7432;48.728;9.154;2023-03-29T00:57:50;96870.97;;;5.40;87.52
14689;BME280;7432;48.728;9.154;2023-03-29T01:00:22;96865.06;;;5.28;88.54
14689;BME280;7432;48.728;9.154;2023-03-29T01:02:51;96874.34;;;5.29;88.57
14689;BME280;7432;48.728;9.154;2023-03-29T01:05:22;96867.38;;;5.31;88.87
14689;BME280;7432;48.728;9.154;2023-03-29T01:07:54;96857.03;;;5.33;88.79
14689;BME280;7432;48.728;9.154;2023-03-29T01:10:28;96861.91;;;5.36;89.14
14689;BME280;7432;48.728;9.154;2023-03-29T01:13:03;96848.81;;;5.41;89.11
14689;BME280;7432;48.728;9.154;2023-03-29T01:15:32;96839.75;;;5.36;89.37
14689;BME280;7432;48.728;9.154;2023-03-29T01:17:58;96836.75;;;5.20;89.61
14689;BME280;7432;48.728;9.154;2023-03-29T01:20:33;96831.06;;;5.28;89.43
14689;BME280;7432;48.728;9.154;2023-03-29T01:23:16;96837.09;;;5.27;89.42
14689;BME280;7432;48.728;9.154;2023-03-29T01:25:56;96838.94;;;5.36;89.30
14689;BME280;7432;48.728;9.154;2023-03-29T01:28:28;96816.69;;;5.27;88.75
14689;BME280;7432;48.728;9.154;2023-03-29T01:31:00;96833.25;;;5.44;88.51
14689;BME280;7432;48.728;9.154;2023-03-29T01:33:33;96820.50;;;5.32;88.61
14689;BME280;7432;48.728;9.154;2023-03-29T01:36:06;96814.91;;;5.38;88.88
14689;BME280;7432;48.728;9.154;2023-03-29T01:38:39;96820.94;;;5.37;89.48
14689;BME280;7432;48.728;9.154;2023-03-29T01:41:09;96827.44;;;5.42;89.48
14689;BME280;7432;48.728;9.154;2023-03-29T01:43:40;96825.59;;;5.44;90.22
14689;BME280;7432;48.728;9.154;2023-03-29T01:46:13;96810.38;;;5.42;90.30
14689;BME280;7432;48.728;9.154;2023-03-29T01:48:45;96807.13;;;5.40;89.95
14689;BME280;7432;48.728;9.154;2023-03-29T01:51:15;96800.63;;;5.36;90.30
14689;BME280;7432;48.728;9.154;2023-03-29T01:53:46;96795.97;;;5.41;90.34
14689;BME280;7432;48.728;9.154;2023-03-29T01:56:17;96766.53;;;5.26;90.08
14689;BME280;7432;48.728;9.154;2023-03-29T01:58:50;96783.94;;;5.32;91.04
14689;BME280;7432;48.728;9.154;2023-03-29T02:01:20;96770.97;;;5.24;91.66
14689;BME280;7432;48.728;9.154;2023-03-29T02:03:51;96744.69;;;5.01;91.62
14689;BME280;7432;48.728;9.154;2023-03-29T02:06:21;96746.97;;;5.15;92.17
14689;BME280;7432;48.728;9.154;2023-03-29T02:08:51;96771.56;;;5.16;92.11
14689;BME280;7432;48.728;9.154;2023-03-29T02:11:18;96757.19;;;5.15;91.40
14689;BME280;7432;48.728;9.154;2023-03-29T02:13:47;96766.53;;;5.26;91.72
14689;BME280;7432;48.728;9.154;2023-03-29T02:16:14;96757.63;;;5.20;91.42
14689;BME280;7432;48.728;9.154;2023-03-29T02:18:42;96757.50;;;5.22;91.94
14689;BME280;7432;48.728;9.154;2023-03-29T02:21:14;96754.72;;;5.25;92.20
14689;BME280;7432;48.728;9.154;2023-03-29T02:23:44;96749.72;;;5.23;92.10
14689;BME280;7432;48.728;9.154;2023-03-29T02:26:13;96755.31;;;5.17;92.66
14689;BME280;7432;48.728;9.154;2023-03-29T02:28:40;96746.84;;;5.17;92.45
14689;BME280;7432;48.728;9.154;2023-03-29T02:31:12;96743.50;;;5.16;92.74
14689;BME280;7432;48.728;9.154;2023-03-29T02:33:45;96720.28;;;5.08;92.69
14689;BME280;7432;48.728;9.154;2023-03-29T02:36:18;96746.97;;;5.15;92.39
14689;BME280;7432;48.728;9.154;2023-03-29T02:38:46;96755.06;;;5.20;92.73
14689;BME280;7432;48.728;9.154;2023-03-29T02:41:13;96742.19;;;5.22;92.56
14689;BME280;7432;48.728;9.154;2023-03-29T02:43:42;96739.53;;;5.23;92.72
14689;BME280;7432;48.728;9.154;2023-03-29T02:46:13;96749.03;;;5.32;91.13
14689;BME280;7432;48.728;9.154;2023-03-29T02:48:40;96738.22;;;5.29;91.15
14689;BME280;7432;48.728;9.154;2023-03-29T02:51:10;96730.63;;;5.38;90.75
14689;BME280;7432;48.728;9.154;2023-03-29T02:53:42;96725.91;;;5.34;90.32
14689;BME280;7432;48.728;9.154;2023-03-29T02:56:10;96725.31;;;5.30;89.81
14689;BME280;7432;48.728;9.154;2023-03-29T02:58:36;96712.50;;;5.21;89.15
14689;BME280;7432;48.728;9.154;2023-03-29T03:01:03;96711.91;;;5.17;89.35
14689;BME280;7432;48.728;9.154;2023-03-29T03:03:32;96709.06;;;5.11;88.94
14689;BME280;7432;48.728;9.154;2023-03-29T03:05:59;96699.34;;;5.05;88.29
14689;BME280;7432;48.728;9.154;2023-03-29T03:08:26;96698.28;;;5.07;89.51
14689;BME280;7432;48.728;9.154;2023-03-29T03:10:53;96699.63;;;5.11;89.26
14689;BME280;7432;48.728;9.154;2023-03-29T03:13:19;96709.50;;;5.16;89.67
14689;BME280;7432;48.728;9.154;2023-03-29T03:15:46;96709.06;;;5.11;89.86
14689;BME280;7432;48.728;9.154;2023-03-29T03:18:13;96712.88;;;5.16;89.97
14689;BME280;7432;48.728;9.154;2023-03-29T03:20:42;96712.59;;;5.19;90.22
14689;BME280;7432;48.728;9.154;2023-03-29T03:23:10;96718.28;;;5.23;90.34
14689;BME280;7432;48.728;9.154;2023-03-29T03:25:37;96716.16;;;5.28;90.09
14689;BME280;7432;48.728;9.154;2023-03-29T03:28:03;96722.97;;;5.38;90.08
14689;BME280;7432;48.728;9.154;2023-03-29T03:30:30;96713.09;;;5.45;89.49
14689;BME280;7432;48.728;9.154;2023-03-29T03:32:57;96710.16;;;5.50;89.42
14689;BME280;7432;48.728;9.154;2023-03-29T03:35:24;96713.28;;;5.53;89.17
14689;BME280;7432;48.728;9.154;2023-03-29T03:37:52;96713.84;;;5.57;88.65
14689;BME280;7432;48.728;9.154;2023-03-29T03:40:18;96712.56;;;5.62;87.97
14689;BME280;7432;48.728;9.154;2023-03-29T03:42:44;96701.03;;;5.68;87.92
14689;BME280;7432;48.728;9.154;2023-03-29T03:45:11;96704.25;;;5.70;87.80
14689;BME280;7432;48.728;9.154;2023-03-29T03:47:38;96700.63;;;5.72;87.39
14689;BME280;7432;48.728;9.154;2023-03-29T03:50:06;96706.56;;;5.73;87.49
14689;BME280;7432;48.728;9.154;2023-03-29T03:52:33;96710.63;;;5.75;87.81
14689;BME280;7432;48.728;9.154;2023-03-29T03:55:01;96708.38;;;5.82;88.13
14689;BME280;7432;48.728;9.154;2023-03-29T03:57:27;96712.44;;;5.84;88.16
14689;BME280;7432;48.728;9.154;2023-03-29T03:59:54;96722.91;;;5.81;88.52
14689;BME280;7432;48.728;9.154;2023-03-29T04:02:20;96721.94;;;5.82;87.90
14689;BME280;7432;48.728;9.154;2023-03-29T04:04:47;96716.63;;;5.85;87.32
14689;BME280;7432;48.728;9.154;2023-03-29T04:07:13;96719.75;;;5.89;87.82
14689;BME280;7432;48.728;9.154;2023-03-29T04:09:42;96723.34;;;5.86;87.11
14689;BME280;7432;48.728;9.154;2023-03-29T04:12:10;96720.31;;;5.92;87.13
14689;BME280;7432;48.728;9.154;2023-03-29T04:14:37;96722.03;;;5.92;86.89
14689;BME280;7432;48.728;9.154;2023-03-29T04:17:03;96721.41;;;6.00;86.30
14689;BME280;7432;48.728;9.154;2023-03-29T04:19:29;96723.41;;;5.96;86.19
14689;BME280;7432;48.728;9.154;2023-03-29T04:21:56;96718.28;;;5.96;86.96
14689;BME280;7432;48.728;9.154;2023-03-29T04:24:22;96712.25;;;5.97;86.74
14689;BME280;7432;48.728;9.154;2023-03-29T04:26:49;96709.44;;;6.00;86.65
14689;BME280;7432;48.728;9.154;2023-03-29T04:29:17;96713.34;;;6.04;86.36
14689;BME280;7432;48.728;9.154;2023-03-29T04:31:43;96726.13;;;6.04;86.37
14689;BME280;7432;48.728;9.154;2023-03-29T04:34:09;96718.09;;;6.09;86.42
14689;BME280;7432;48.728;9.154;2023-03-29T04:36:36;96718.34;;;6.06;85.70
14689;BME280;7432;48.728;9.154;2023-03-29T04:39:03;96714.84;;;6.07;85.81
14689;BME280;7432;48.728;9.154;2023-03-29T04:41:32;96723.47;;;6.06;85.83
14689;BME280;7432;48.728;9.154;2023-03-29T04:43:58;96723.22;;;6.09;86.83
14689;BME280;7432;48.728;9.154;2023-03-29T04:46:28;96715.66;;;6.07;86.05
14689;BME280;7432;48.728;9.154;2023-03-29T04:48:54;96718.38;;;6.15;85.34
14689;BME280;7432;48.728;9.154;2023-03-29T04:51:21;96708.31;;;6.14;85.21
14689;BME280;7432;48.728;9.154;2023-03-29T04:53:48;96714.22;;;6.14;84.85
14689;BME280;7432;48.728;9.154;2023-03-29T04:56:15;96712.50;;;6.15;85.68
14689;BME280;7432;48.728;9.154;2023-03-29T04:58:41;96716.78;;;6.14;85.27
14689;BME280;7432;48.728;9.154;2023-03-29T05:01:08;96709.78;;;6.16;84.92
14689;BME280;7432;48.728;9.154;2023-03-29T05:03:36;96714.09;;;6.16;85.35
14689;BME280;7432;48.728;9.154;2023-03-29T05:06:03;96716.97;;;6.22;85.16
14689;BME280;7432;48.728;9.154;2023-03-29T05:08:31;96710.78;;;6.25;85.33
14689;BME280;7432;48.728;9.154;2023-03-29T05:10:58;96714.69;;;6.29;85.36
14689;BME280;7432;48.728;9.154;2023-03-29T05:13:24;96712.00;;;6.30;85.40
14689;BME280;7432;48.728;9.154;2023-03-29T05:15:51;96712.69;;;6.32;86.41
14689;BME280;7432;48.728;9.154;2023-03-29T05:18:17;96708.81;;;6.38;85.76
14689;BME280;7432;48.728;9.154;2023-03-29T05:20:45;96711.38;;;6.38;86.02
14689;BME280;7432;48.728;9.154;2023-03-29T05:23:11;96724.28;;;6.36;84.79
14689;BME280;7432;48.728;9.154;2023-03-29T05:25:39;96716.22;;;6.41;84.86
14689;BME280;7432;48.728;9.154;2023-03-29T05:28:05;96723.25;;;6.48;84.27
14689;BME280;7432;48.728;9.154;2023-03-29T05:30:32;96720.56;;;6.50;84.84
14689;BME280;7432;48.728;9.154;2023-03-29T05:33:00;96720.94;;;6.45;84.86
14689;BME280;7432;48.728;9.154;2023-03-29T05:35:26;96721.00;;;6.55;84.13
14689;BME280;7432;48.728;9.154;2023-03-29T05:37:54;96714.66;;;6.59;84.08
14689;BME280;7432;48.728;9.154;2023-03-29T05:40:21;96719.78;;;6.59;84.09
14689;BME280;7432;48.728;9.154;2023-03-29T05:42:50;96730.31;;;6.66;82.58
14689;BME280;7432;48.728;9.154;2023-03-29T05:45:17;96720.34;;;6.72;81.71
14689;BME280;7432;48.728;9.154;2023-03-29T05:47:43;96721.72;;;6.76;80.99
14689;BME280;7432;48.728;9.154;2023-03-29T05:50:10;96716.91;;;6.83;78.87
14689;BME280;7432;48.728;9.154;2023-03-29T05:52:37;96718.91;;;6.89;79.12
14689;BME280;7432;48.728;9.154;2023-03-29T05:55:07;96720.41;;;6.91;77.73
14689;BME280;7432;48.728;9.154;2023-03-29T05:57:34;96720.94;;;6.95;77.92
14689;BME280;7432;48.728;9.154;2023-03-29T06:00:02;96719.63;;;7.00;77.10
14689;BME280;7432;48.728;9.154;2023-03-29T06:02:43;96721.09;;;7.03;77.03
14689;BME280;7432;48.728;9.154;2023-03-29T06:05:11;96729.47;;;7.14;75.60
14689;BME280;7432;48.728;9.154;2023-03-29T06:07:38;96723.28;;;7.17;76.95
14689;BME280;7432;48.728;9.154;2023-03-29T06:10:07;96725.88;;;7.27;77.38
14689;BME280;7432;48.728;9.154;2023-03-29T06:12:33;96726.13;;;7.33;76.15
14689;BME280;7432;48.728;9.154;2023-03-29T06:15:00;96721.00;;;7.33;76.92
14689;BME280;7432;48.728;9.154;2023-03-29T06:17:29;96724.34;;;7.43;75.98
14689;BME280;7432;48.728;9.154;2023-03-29T06:19:55;96726.66;;;7.46;73.77
14689;BME280;7432;48.728;9.154;2023-03-29T06:22:22;96715.44;;;7.57;74.69
14689;BME280;7432;48.728;9.154;2023-03-29T06:24:48;96714.66;;;7.75;73.27
14689;BME280;7432;48.728;9.154;2023-03-29T06:27:16;96711.94;;;7.87;74.53
14689;BME280;7432;48.728;9.154;2023-03-29T06:29:43;96711.50;;;7.91;73.35
14689;BME280;7432;48.728;9.154;2023-03-29T06:32:09;96722.28;;;8.04;73.84
14689;BME280;7432;48.728;9.154;2023-03-29T06:34:36;96717.78;;;8.16;73.08
14689;BME280;7432;48.728;9.154;2023-03-29T06:37:03;96737.50;;;8.25;72.74
14689;BME280;7432;48.728;9.154;2023-03-29T06:39:30;96742.19;;;8.39;72.17
14689;BME280;7432;48.728;9.154;2023-03-29T06:41:57;96731.50;;;8.44;72.78
14689;BME280;7432;48.728;9.154;2023-03-29T06:44:24;96730.25;;;8.57;72.16
14689;BME280;7432;48.728;9.154;2023-03-29T06:46:52;96743.03;;;8.67;71.94
14689;BME280;7432;48.728;9.154;2023-03-29T06:49:18;96743.94;;;8.75;72.45
14689;BME280;7432;48.728;9.154;2023-03-29T06:51:45;96748.22;;;8.84;70.76
14689;BME280;7432;48.728;9.154;2023-03-29T06:54:12;96746.84;;;8.90;71.52
14689;BME280;7432;48.728;9.154;2023-03-29T06:56:39;96751.00;;;8.91;71.49
14689;BME280;7432;48.728;9.154;2023-03-29T06:59:06;96759.91;;;8.97;72.14
14689;BME280;7432;48.728;9.154;2023-03-29T07:01:33;96758.09;;;9.07;69.92
14689;BME280;7432;48.728;9.154;2023-03-29T07:04:01;96770.50;;;9.11;69.41
14689;BME280;7432;48.728;9.154;2023-03-29T07:06:31;96759.00;;;9.15;69.62
14689;BME280;7432;48.728;9.154;2023-03-29T07:08:58;96766.13;;;9.21;68.56
14689;BME280;7432;48.728;9.154;2023-03-29T07:11:26;96754.88;;;9.22;68.96
14689;BME280;7432;48.728;9.154;2023-03-29T07:13:53;96762.09;;;9.36;69.08
14689;BME280;7432;48.728;9.154;2023-03-29T07:16:19;96757.84;;;9.45;68.15
14689;BME280;7432;48.728;9.154;2023-03-29T07:18:47;96757.03;;;9.44;68.02
14689;BME280;7432;48.728;9.154;2023-03-29T07:21:14;96758.81;;;9.44;67.74
14689;BME280;7432;48.728;9.154;2023-03-29T07:23:40;96763.72;;;9.55;67.67
14689;BME280;7432;48.728;9.154;2023-03-29T07:26:08;96756.59;;;9.67;67.90
14689;BME280;7432;48.728;9.154;2023-03-29T07:28:35;96771.94;;;9.76;68.00
14689;BME280;7432;48.728;9.154;2023-03-29T07:31:04;96766.56;;;9.87;67.65
14689;BME280;7432;48.728;9.154;2023-03-29T07:33:31;96779.19;;;9.98;66.98
14689;BME280;7432;48.728;9.154;2023-03-29T07:35:59;96776.97;;;10.03;67.19
14689;BME280;7432;48.728;9.154;2023-03-29T07:38:26;96779.78;;;10.10;65.81
14689;BME280;7432;48.728;9.154;2023-03-29T07:40:52;96787.13;;;10.23;66.51
14689;BME280;7432;48.728;9.154;2023-03-29T07:43:19;96797.81;;;10.36;65.07
14689;BME280;7432;48.728;9.154;2023-03-29T07:45:45;96789.38;;;10.43;65.02
14689;BME280;7432;48.728;9.154;2023-03-29T07:48:12;96794.09;;;10.56;64.14
14689;BME280;7432;48.728;9.154;2023-03-29T07:50:39;96795.59;;;10.66;64.17
14689;BME280;7432;48.728;9.154;2023-03-29T07:53:08;96796.91;;;10.70;63.33
14689;BME280;7432;48.728;9.154;2023-03-29T07:55:35;96802.84;;;10.71;62.57
14689;BME280;7432;48.728;9.154;2023-03-29T07:58:02;96798.81;;;10.68;63.50
14689;BME280;7432;48.728;9.154;2023-03-29T08:00:28;96796.41;;;10.67;64.32
14689;BME280;7432;48.728;9.154;2023-03-29T08:02:54;96794.69;;;10.76;63.90
14689;BME280;7432;48.728;9.154;2023-03-29T08:05:21;96790.72;;;10.89;63.16
14689;BME280;7432;48.728;9.154;2023-03-29T08:07:47;96791.75;;;11.04;62.57
14689;BME280;7432;48.728;9.154;2023-03-29T08:10:17;96790.88;;;11.29;61.17
14689;BME280;7432;48.728;9.154;2023-03-29T08:12:46;96789.78;;;11.56;59.82
14689;BME280;7432;48.728;9.154;2023-03-29T08:15:13;96795.81;;;11.81;59.71
14689;BME280;7432;48.728;9.154;2023-03-29T08:17:41;96789.72;;;11.98;59.96
14689;BME280;7432;48.728;9.154;2023-03-29T08:20:09;96794.69;;;12.00;59.63
14689;BME280;7432;48.728;9.154;2023-03-29T08:22:37;96792.94;;;12.00;59.25
14689;BME280;7432;48.728;9.154;2023-03-29T08:25:05;96789.06;;;11.96;58.45
14689;BME280;7432;48.728;9.154;2023-03-29T08:27:33;96791.78;;;11.86;59.44
14689;BME280;7432;48.728;9.154;2023-03-29T08:30:01;96791.97;;;11.69;58.34
14689;BME280;7432;48.728;9.154;2023-03-29T08:32:28;96790.28;;;11.60;59.01
14689;BME280;7432;48.728;9.154;2023-03-29T08:34:55;96793.19;;;11.57;58.29
14689;BME280;7432;48.728;9.154;2023-03-29T08:37:22;96795.44;;;11.52;59.11
14689;BME280;7432;48.728;9.154;2023-03-29T08:39:50;96790.88;;;11.38;59.21
14689;BME280;7432;48.728;9.154;2023-03-29T08:42:35;96800.69;;;11.34;59.15
14689;BME280;7432;48.728;9.154;2023-03-29T08:45:08;96785.56;;;11.31;59.26
14689;BME280;7432;48.728;9.154;2023-03-29T08:47:46;96797.16;;;11.27;59.29
14689;BME280;7432;48.728;9.154;2023-03-29T08:50:19;96794.25;;;11.30;59.26
14689;BME280;7432;48.728;9.154;2023-03-29T08:52:49;96793.63;;;11.36;57.78
14689;BME280;7432;48.728;9.154;2023-03-29T08:55:21;96790.75;;;11.39;58.15
14689;BME280;7432;48.728;9.154;2023-03-29T08:57:51;96783.03;;;11.55;58.08
14689;BME280;7432;48.728;9.154;2023-03-29T09:00:20;96774.00;;;11.67;57.34
14689;BME280;7432;48.728;9.154;2023-03-29T09:02:50;96788.91;;;11.81;58.26
14689;BME280;7432;48.728;9.154;2023-03-29T09:05:22;96780.34;;;11.97;57.43
14689;BME280;7432;48.728;9.154;2023-03-29T09:07:51;96789.53;;;12.00;55.62
14689;BME280;7432;48.728;9.154;2023-03-29T09:10:20;96786.31;;;12.22;56.44
14689;BME280;7432;48.728;9.154;2023-03-29T09:13:06;96776.44;;;12.49;56.20
14689;BME280;7432;48.728;9.154;2023-03-29T09:15:42;96789.72;;;12.85;56.13
14689;BME280;7432;48.728;9.154;2023-03-29T09:18:12;96782.06;;;13.16;55.03
14689;BME280;7432;48.728;9.154;2023-03-29T09:20:49;96783.50;;;13.19;52.86
14689;BME280;7432;48.728;9.154;2023-03-29T09:23:37;96780.09;;;13.49;52.17
14689;BME280;7432;48.728;9.154;2023-03-29T09:26:16;96780.09;;;13.49;53.23
14689;BME280;7432;48.728;9.154;2023-03-29T09:28:57;96776.72;;;13.71;51.41
14689;BME280;7432;48.728;9.154;2023-03-29T09:31:31;96772.47;;;13.78;51.36
14689;BME280;7432;48.728;9.154;2023-03-29T09:34:03;96775.66;;;14.03;49.84
14689;BME280;7432;48.728;9.154;2023-03-29T09:36:37;96772.97;;;13.96;50.40
14689;BME280;7432;48.728;9.154;2023-03-29T09:39:07;96765.66;;;14.00;50.52
14689;BME280;7432;48.728;9.154;2023-03-29T09:41:38;96757.00;;;14.07;50.92
14689;BME280;7432;48.728;9.154;2023-03-29T09:44:09;96765.63;;;14.22;49.69
14689;BME280;7432;48.728;9.154;2023-03-29T09:46:41;96764.16;;;14.43;48.16
14689;BME280;7432;48.728;9.154;2023-03-29T09:49:12;96755.16;;;14.82;48.66
14689;BME280;7432;48.728;9.154;2023-03-29T09:51:40;96752.75;;;15.31;47.10
14689;BME280;7432;48.728;9.154;2023-03-29T09:54:09;96759.97;;;15.93;46.58
14689;BME280;7432;48.728;9.154;2023-03-29T09:56:36;96761.22;;;16.46;45.01
14689;BME280;7432;48.728;9.154;2023-03-29T09:59:03;96757.78;;;16.39;43.29
14689;BME280;7432;48.728;9.154;2023-03-29T10:01:36;96760.31;;;16.32;43.75
14689;BME280;7432;48.728;9.154;2023-03-29T10:04:05;96766.25;;;16.26;43.87
14689;BME280;7432;48.728;9.154;2023-03-29T10:06:31;96767.13;;;16.12;44.57
14689;BME280;7432;48.728;9.154;2023-03-29T10:09:00;96759.97;;;15.93;45.25
14689;BME280;7432;48.728;9.154;2023-03-29T10:11:30;96755.78;;;15.92;45.86
14689;BME280;7432;48.728;9.154;2023-03-29T10:14:00;96754.03;;;15.99;44.86
14689;BME280;7432;48.728;9.154;2023-03-29T10:16:28;96754.31;;;16.32;44.90
14689;BME280;7432;48.728;9.154;2023-03-29T10:18:56;96762.47;;;16.29;44.78
14689;BME280;7432;48.728;9.154;2023-03-29T10:21:22;96761.50;;;16.30;45.11
14689;BME280;7432;48.728;9.154;2023-03-29T10:23:56;96755.72;;;16.34;44.98
14689;BME280;7432;48.728;9.154;2023-03-29T10:26:27;96755.06;;;16.26;44.60
14689;BME280;7432;48.728;9.154;2023-03-29T10:28:54;96754.44;;;16.24;45.28
14689;BME280;7432;48.728;9.154;2023-03-29T10:31:24;96751.38;;;16.41;44.44
14689;BME280;7432;48.728;9.154;2023-03-29T10:33:56;96747.41;;;16.73;44.84
14689;BME280;7432;48.728;9.154;2023-03-29T10:36:25;96742.69;;;17.44;43.28
14689;BME280;7432;48.728;9.154;2023-03-29T10:38:54;96747.41;;;18.20;40.43
14689;BME280;7432;48.728;9.154;2023-03-29T10:41:22;96748.19;;;18.47;39.67
14689;BME280;7432;48.728;9.154;2023-03-29T10:43:49;96738.59;;;18.54;40.79
14689;BME280;7432;48.728;9.154;2023-03-29T10:46:20;96729.38;;;18.52;40.24
14689;BME280;7432;48.728;9.154;2023-03-29T10:48:49;96727.34;;;18.60;39.54
14689;BME280;7432;48.728;9.154;2023-03-29T10:51:18;96720.50;;;18.40;39.09
14689;BME280;7432;48.728;9.154;2023-03-29T10:53:44;96715.09;;;18.34;40.21
14689;BME280;7432;48.728;9.154;2023-03-29T10:56:19;96720.97;;;17.97;40.98
14689;BME280;7432;48.728;9.154;2023-03-29T10:58:58;96729.97;;;17.88;40.70
14689;BME280;7432;48.728;9.154;2023-03-29T11:01:39;96715.53;;;17.86;40.55
14689;BME280;7432;48.728;9.154;2023-03-29T11:04:19;96712.94;;;17.86;39.89
14689;BME280;7432;48.728;9.154;2023-03-29T11:06:57;96713.53;;;17.94;41.09
14689;BME280;7432;48.728;9.154;2023-03-29T11:09:39;96713.13;;;18.04;40.99
14689;BME280;7432;48.728;9.154;2023-03-29T11:12:12;96707.72;;;18.25;41.68
14689;BME280;7432;48.728;9.154;2023-03-29T11:14:49;96704.28;;;18.31;40.99
14689;BME280;7432;48.728;9.154;2023-03-29T11:17:29;96695.84;;;18.42;42.69
14689;BME280;7432;48.728;9.154;2023-03-29T11:20:10;96699.25;;;18.43;41.97
14689;BME280;7432;48.728;9.154;2023-03-29T11:22:48;96699.09;;;18.11;42.15
14689;BME280;7432;48.728;9.154;2023-03-29T11:25:23;96693.69;;;18.00;42.61
14689;BME280;7432;48.728;9.154;2023-03-29T11:27:55;96681.25;;;17.82;42.06
14689;BME280;7432;48.728;9.154;2023-03-29T11:30:28;96687.38;;;17.29;43.25
14689;BME280;7432;48.728;9.154;2023-03-29T11:33:04;96687.97;;;17.31;43.45
14689;BME280;7432;48.728;9.154;2023-03-29T11:35:40;96693.41;;;17.42;43.63
14689;BME280;7432;48.728;9.154;2023-03-29T11:38:19;96692.00;;;17.46;44.29
14689;BME280;7432;48.728;9.154;2023-03-29T11:40:56;96694.47;;;17.61;42.56
14689;BME280;7432;48.728;9.154;2023-03-29T11:43:27;96681.19;;;17.49;42.42
14689;BME280;7432;48.728;9.154;2023-03-29T11:46:00;96667.81;;;17.65;42.33
14689;BME280;7432;48.728;9.154;2023-03-29T11:48:30;96677.25;;;17.53;41.65
14689;BME280;7432;48.728;9.154;2023-03-29T11:51:06;96677.00;;;17.48;39.21
14689;BME280;7432;48.728;9.154;2023-03-29T11:53:43;96669.31;;;17.14;40.51
14689;BME280;7432;48.728;9.154;2023-03-29T11:56:14;96670.94;;;17.22;40.66
14689;BME280;7432;48.728;9.154;2023-03-29T11:58:47;96683.34;;;17.19;38.97
14689;BME280;7432;48.728;9.154;2023-03-29T12:01:18;96677.56;;;17.31;38.16
14689;BME280;7432;48.728;9.154;2023-03-29T12:03:49;96674.38;;;17.29;39.43
14689;BME280;7432;48.728;9.154;2023-03-29T12:06:20;96672.75;;;17.41;38.03
14689;BME280;7432;48.728;9.154;2023-03-29T12:08:53;96670.34;;;17.26;39.45
14689;BME280;7432;48.728;9.154;2023-03-29T12:11:27;96670.13;;;17.14;39.22
14689;BME280;7432;48.728;9.154;2023-03-29T12:13:57;96671.84;;;16.88;39.55
14689;BME280;7432;48.728;9.154;2023-03-29T12:16:29;96666.59;;;16.75;40.55
14689;BME280;7432;48.728;9.154;2023-03-29T12:19:02;96667.31;;;16.62;40.49
14689;BME280;7432;48.728;9.154;2023-03-29T12:21:29;96663.22;;;16.46;41.23
14689;BME280;7432;48.728;9.154;2023-03-29T12:23:58;96676.75;;;16.63;39.91
14689;BME280;7432;48.728;9.154;2023-03-29T12:26:34;96669.38;;;16.73;41.33
14689;BME280;7432;48.728;9.154;2023-03-29T12:29:20;96681.19;;;16.69;39.88
14689;BME280;7432;48.728;9.154;2023-03-29T12:32:00;96674.31;;;16.62;39.95
14689;BME280;7432;48.728;9.154;2023-03-29T12:34:42;96689.66;;;16.50;39.83
14689;BME280;7432;48.728;9.154;2023-03-29T12:37:31;96659.38;;;16.36;39.79
14689;BME280;7432;48.728;9.154;2023-03-29T12:40:10;96675.28;;;16.26;40.91
14689;BME280;7432;48.728;9.154;2023-03-29T12:42:45;96679.84;;;16.18;40.85
14689;BME280;7432;48.728;9.154;2023-03-29T12:45:16;96688.06;;;16.21;40.74
14689;BME280;7432;48.728;9.154;2023-03-29T12:47:45;96690.34;;;16.37;42.50
14689;BME280;7432;48.728;9.154;2023-03-29T12:50:24;96687.91;;;16.29;42.72
14689;BME280;7432;48.728;9.154;2023-03-29T12:53:00;96689.53;;;16.30;42.86
14689;BME280;7432;48.728;9.154;2023-03-29T12:55:32;96677.63;;;16.49;41.83
14689;BME280;7432;48.728;9.154;2023-03-29T12:58:04;96686.53;;;16.61;43.05
14689;BME280;7432;48.728;9.154;2023-03-29T13:00:41;96680.03;;;16.50;43.25
14689;BME280;7432;48.728;9.154;2023-03-29T13:03:20;96678.44;;;16.49;44.41
14689;BME280;7432;48.728;9.154;2023-03-29T13:05:57;96679.84;;;16.52;43.79
14689;BME280;7432;48.728;9.154;2023-03-29T13:08:26;96695.38;;;16.39;44.31
14689;BME280;7432;48.728;9.154;2023-03-29T13:10:59;96689.91;;;16.27;44.77
14689;BME280;7432;48.728;9.154;2023-03-29T13:13:27;96674.13;;;16.01;46.54
14689;BME280;7432;48.728;9.154;2023-03-29T13:16:10;96687.91;;;16.01;46.84
14689;BME280;7432;48.728;9.154;2023-03-29T13:18:46;96681.53;;;16.04;46.98
14689;BME280;7432;48.728;9.154;2023-03-29T13:21:19;96687.50;;;15.70;49.34
14689;BME280;7432;48.728;9.154;2023-03-29T13:23:57;96702.88;;;15.51;49.97
14689;BME280;7432;48.728;9.154;2023-03-29T13:26:34;96697.66;;;15.29;52.91
14689;BME280;7432;48.728;9.154;2023-03-29T13:29:15;96688.38;;;15.20;53.37
14689;BME280;7432;48.728;9.154;2023-03-29T13:31:54;96693.31;;;15.51;51.29